X  Close Metar Aviation Weather Data     KSEA Seattle Tacoma International Airport
Temperature
61°F Temperature
46°F Dewpoint
59% Humidity



Wind
3 MPH
5 KM/H
1 M/S
3 KTS



Calm
North
Current Conditions

Partly Cloudy Partly Cloudy
Pressure 1024.42 (hPa) - 30.25 (inHg)
Visibility 10 (mile) - 16.1 (km)
Airport
Airport-code KSEA

Location: Seattle Tacoma International Airport
Distance: 14 (mi)

Metar:
KSEA 221753Z VRB03KT 10SM FEW030 FEW060 SCT210 16/08 A3025 RMK AO2 SLP249 T01560078 10161 20078 58003

Time: 05-22-2022 10:53 PDT